createdAt,value
2024-02-29T00:00:26.621Z,101442.06
2024-02-29T00:02:54.201Z,101437.06
2024-02-29T00:05:22.087Z,101435.41
2024-02-29T00:07:49.247Z,101430.56
2024-02-29T00:10:16.465Z,101419.47
2024-02-29T00:12:44.019Z,101425.72
2024-02-29T00:15:12.072Z,101412.75
2024-02-29T00:17:39.178Z,101413.56
2024-02-29T00:20:10.107Z,101411.84
2024-02-29T00:22:37.512Z,101411.00
2024-02-29T00:25:05.300Z,101394.09
2024-02-29T00:27:32.674Z,101411.41
2024-02-29T00:30:00.732Z,101409.84
2024-02-29T00:32:28.091Z,101401.22
2024-02-29T00:34:55.539Z,101398.63
2024-02-29T00:37:22.922Z,101395.94
2024-02-29T00:39:50.049Z,101395.13
2024-02-29T00:42:17.290Z,101394.31
2024-02-29T00:44:44.666Z,101401.28
2024-02-29T00:47:13.235Z,101398.91
2024-02-29T00:49:40.863Z,101392.75
2024-02-29T00:52:08.226Z,101397.00
2024-02-29T00:54:35.495Z,101381.50
2024-02-29T00:57:03.454Z,101390.28
2024-02-29T00:59:30.741Z,101382.97
2024-02-29T01:01:58.198Z,101376.00
2024-02-29T01:04:26.668Z,101366.72
2024-02-29T01:06:54.349Z,101368.16
2024-02-29T01:09:27.001Z,101361.38
2024-02-29T01:11:57.010Z,101345.75
2024-02-29T01:14:24.237Z,101356.09
2024-02-29T01:16:52.246Z,101351.84
2024-02-29T01:19:19.433Z,101350.34
2024-02-29T01:21:46.738Z,101342.63
2024-02-29T01:24:13.998Z,101334.09
2024-02-29T01:26:41.177Z,101335.25
2024-02-29T01:29:08.474Z,101321.38
2024-02-29T01:31:35.645Z,101310.34
2024-02-29T01:34:02.761Z,101317.16
2024-02-29T01:36:29.942Z,101315.22
2024-02-29T01:38:57.254Z,101311.75
2024-02-29T01:41:24.386Z,101304.25
2024-02-29T01:43:55.487Z,101299.25
2024-02-29T01:46:24.175Z,101288.00
2024-02-29T01:48:52.117Z,101295.16
2024-02-29T01:51:20.726Z,101283.81
2024-02-29T01:53:47.947Z,101284.19
2024-02-29T01:56:16.149Z,101289.38
2024-02-29T01:58:43.577Z,101290.25
2024-02-29T02:01:11.156Z,101279.94
2024-02-29T02:03:39.638Z,101273.69
2024-02-29T02:06:06.823Z,101279.03
2024-02-29T02:08:34.390Z,101268.56
2024-02-29T02:11:01.595Z,101254.78
2024-02-29T02:13:28.790Z,101255.50
2024-02-29T02:15:56.075Z,101249.69
2024-02-29T02:18:23.521Z,101242.75
2024-02-29T02:20:51.134Z,101247.44
2024-02-29T02:23:18.462Z,101236.84
2024-02-29T02:25:45.622Z,101247.50
2024-02-29T02:28:14.054Z,101243.94
2024-02-29T02:30:41.568Z,101243.13
2024-02-29T02:33:10.885Z,101243.25
2024-02-29T02:35:38.130Z,101240.59
2024-02-29T02:38:05.591Z,101236.53
2024-02-29T02:40:32.991Z,101228.00
2024-02-29T02:43:00.211Z,101228.88
2024-02-29T02:45:27.358Z,101217.63
2024-02-29T02:47:54.816Z,101226.91
2024-02-29T02:50:22.420Z,101206.47
2024-02-29T02:52:49.566Z,101212.78
2024-02-29T02:55:16.714Z,101204.75
2024-02-29T02:57:44.953Z,101208.50
2024-02-29T03:00:12.997Z,101205.66
2024-02-29T03:02:41.154Z,101207.66
2024-02-29T03:05:10.290Z,101202.38
2024-02-29T03:07:39.501Z,101201.38
2024-02-29T03:10:08.684Z,101190.22
2024-02-29T03:12:37.550Z,101190.91
2024-02-29T03:15:06.371Z,101176.34
2024-02-29T03:17:33.617Z,101179.22
2024-02-29T03:20:00.981Z,101180.91
2024-02-29T03:22:28.174Z,101177.22
2024-02-29T03:24:57.155Z,101170.78
2024-02-29T03:27:24.479Z,101162.13
2024-02-29T03:29:51.643Z,101164.66
2024-02-29T03:32:20.616Z,101152.66
2024-02-29T03:34:47.895Z,101152.47
2024-02-29T03:37:15.176Z,101149.22
2024-02-29T03:39:42.509Z,101146.56
2024-02-29T03:42:09.775Z,101136.81
2024-02-29T03:44:37.199Z,101146.66
2024-02-29T03:47:05.608Z,101145.06
2024-02-29T03:49:32.698Z,101145.88
2024-02-29T03:51:59.859Z,101132.84
2024-02-29T03:54:27.213Z,101135.22
2024-02-29T03:56:54.933Z,101122.91
2024-02-29T03:59:22.172Z,101136.56
2024-02-29T04:01:50.482Z,101129.66
2024-02-29T04:04:18.779Z,101124.53
2024-02-29T04:06:46.312Z,101118.97
2024-02-29T04:09:13.735Z,101120.72
2024-02-29T04:11:41.057Z,101117.38
2024-02-29T04:14:08.169Z,101106.28
2024-02-29T04:16:38.702Z,101112.19
2024-02-29T04:19:06.857Z,101125.09
2024-02-29T04:21:34.584Z,101099.97
2024-02-29T04:24:02.608Z,101111.44
2024-02-29T04:26:30.143Z,101110.34
2024-02-29T04:28:58.472Z,101099.97
2024-02-29T04:31:25.705Z,101100.97
2024-02-29T04:33:53.260Z,101094.69
2024-02-29T04:36:20.480Z,101106.06
2024-02-29T04:38:47.650Z,101094.75
2024-02-29T04:41:14.886Z,101091.31
2024-02-29T04:43:42.031Z,101087.03
2024-02-29T04:46:09.504Z,101090.38
2024-02-29T04:48:36.821Z,101081.03
2024-02-29T04:51:05.962Z,101080.41
2024-02-29T04:53:33.284Z,101068.16
2024-02-29T04:56:01.727Z,101082.16
2024-02-29T04:58:29.249Z,101068.53
2024-02-29T05:00:57.358Z,101083.00
2024-02-29T05:03:25.835Z,101074.31
2024-02-29T05:05:53.469Z,101071.59
2024-02-29T05:08:20.904Z,101059.88
2024-02-29T05:10:48.815Z,101058.34
2024-02-29T05:13:16.132Z,101050.72
2024-02-29T05:15:43.887Z,101050.75
2024-02-29T05:18:11.231Z,101043.09
2024-02-29T05:20:38.429Z,101047.31
2024-02-29T05:23:06.947Z,101042.06
2024-02-29T05:25:34.022Z,101032.75
2024-02-29T05:28:01.613Z,101039.75
2024-02-29T05:30:28.955Z,101032.16
2024-02-29T05:35:38.550Z,101027.38
2024-02-29T05:38:07.231Z,101019.19
2024-02-29T05:40:34.510Z,101027.38
2024-02-29T05:43:05.569Z,101023.75
2024-02-29T05:45:32.806Z,101016.19
2024-02-29T05:47:59.953Z,101011.16
2024-02-29T05:50:29.896Z,101018.75
2024-02-29T05:53:00.692Z,101011.03
2024-02-29T05:55:27.832Z,101012.03
2024-02-29T05:57:55.414Z,101015.44
2024-02-29T06:00:25.723Z,101005.97
2024-02-29T06:02:53.402Z,101003.50
2024-02-29T06:05:21.228Z,101009.63
2024-02-29T06:07:48.484Z,101004.44
2024-02-29T06:10:15.852Z,101001.19
2024-02-29T06:12:42.985Z,101000.22
2024-02-29T06:15:11.672Z,100996.84
2024-02-29T06:17:39.898Z,101003.06
2024-02-29T06:20:11.629Z,100997.06
2024-02-29T06:22:42.432Z,101006.47
2024-02-29T06:25:12.604Z,100999.69
2024-02-29T06:27:40.509Z,101002.28
2024-02-29T06:30:09.772Z,101004.00
2024-02-29T06:32:37.062Z,101007.56
2024-02-29T06:35:04.554Z,101001.44
2024-02-29T06:37:31.674Z,101007.69
2024-02-29T06:39:59.501Z,101005.28
2024-02-29T06:42:27.018Z,101004.97
2024-02-29T06:44:54.353Z,101006.84
2024-02-29T06:47:21.569Z,101002.72
2024-02-29T06:49:48.675Z,100993.19
2024-02-29T06:52:16.020Z,100990.00
2024-02-29T06:54:45.401Z,101001.16
2024-02-29T06:57:13.191Z,100996.19
2024-02-29T06:59:40.296Z,100995.34
2024-02-29T07:02:07.697Z,100978.28
2024-02-29T07:04:34.916Z,100987.00
2024-02-29T07:07:04.307Z,100984.44
2024-02-29T07:09:32.048Z,100986.22
2024-02-29T07:11:59.578Z,100983.63
2024-02-29T07:14:27.010Z,100971.38
2024-02-29T07:16:54.325Z,100975.72
2024-02-29T07:19:21.616Z,100979.41
2024-02-29T07:21:48.848Z,100976.72
2024-02-29T07:24:16.026Z,100976.91
2024-02-29T07:26:43.279Z,100962.34
2024-02-29T07:29:10.532Z,100963.94
2024-02-29T07:31:42.874Z,100960.56
2024-02-29T07:34:11.897Z,100963.38
2024-02-29T07:36:39.125Z,100969.50
2024-02-29T07:39:08.244Z,100968.50
2024-02-29T07:41:35.567Z,100965.22
2024-02-29T07:44:02.975Z,100962.53
2024-02-29T07:46:30.148Z,100960.84
2024-02-29T07:48:57.321Z,100956.53
2024-02-29T07:51:24.528Z,100965.47
2024-02-29T07:53:51.664Z,100948.94
2024-02-29T07:56:19.298Z,100951.59
2024-02-29T07:58:48.064Z,100961.06
2024-02-29T08:01:15.392Z,100960.22
2024-02-29T08:03:42.599Z,100952.66
2024-02-29T08:06:09.749Z,100947.56
2024-02-29T08:08:36.921Z,100954.34
2024-02-29T08:11:04.421Z,100951.56
2024-02-29T08:13:31.572Z,100947.44
2024-02-29T08:15:58.703Z,100946.47
2024-02-29T08:18:26.023Z,100949.84
2024-02-29T08:20:53.251Z,100940.53
2024-02-29T08:23:20.433Z,100948.59
2024-02-29T08:25:48.138Z,100939.47
2024-02-29T08:28:15.574Z,100930.84
2024-02-29T08:30:42.789Z,100935.81
2024-02-29T08:33:10.033Z,100932.31
2024-02-29T08:35:37.312Z,100931.63
2024-02-29T08:38:04.577Z,100914.25
2024-02-29T08:40:31.718Z,100925.69
2024-02-29T08:42:58.859Z,100926.56
2024-02-29T08:45:26.115Z,100930.19
2024-02-29T08:47:53.351Z,100932.09
2024-02-29T08:50:20.672Z,100932.78
2024-02-29T08:52:48.324Z,100919.09
2024-02-29T08:55:15.682Z,100926.94
2024-02-29T08:57:43.139Z,100923.72
2024-02-29T09:00:10.898Z,100924.81
2024-02-29T09:02:38.493Z,100922.06
2024-02-29T09:05:06.190Z,100915.94
2024-02-29T09:07:33.375Z,100923.72
2024-02-29T09:10:00.628Z,100908.22
2024-02-29T09:12:27.884Z,100906.34
2024-02-29T09:14:54.988Z,100911.06
2024-02-29T09:17:22.088Z,100913.69
2024-02-29T09:19:49.213Z,100911.00
2024-02-29T09:22:16.560Z,100915.28
2024-02-29T09:24:43.968Z,100910.28
2024-02-29T09:27:11.707Z,100913.81
2024-02-29T09:29:38.861Z,100914.59
2024-02-29T09:32:06.196Z,100905.81
2024-02-29T09:34:38.348Z,100899.66
2024-02-29T09:37:07.225Z,100895.31
2024-02-29T09:39:34.492Z,100892.81
2024-02-29T09:42:12.541Z,100890.50
2024-02-29T09:44:43.820Z,100890.50
2024-02-29T09:47:13.924Z,100893.13
2024-02-29T09:49:42.218Z,100884.53
2024-02-29T09:52:11.051Z,100880.19
2024-02-29T09:54:40.987Z,100884.69
2024-02-29T09:57:13.961Z,100878.53
2024-02-29T09:59:44.787Z,100883.84
2024-02-29T10:02:18.907Z,100883.38
2024-02-29T10:04:49.522Z,100884.16
2024-02-29T10:07:17.205Z,100889.25
2024-02-29T10:09:45.301Z,100881.69
2024-02-29T10:12:19.709Z,100874.88
2024-02-29T10:14:48.467Z,100879.31
2024-02-29T10:17:15.654Z,100870.03
2024-02-29T10:19:42.797Z,100865.78
2024-02-29T10:22:10.234Z,100868.31
2024-02-29T10:24:37.428Z,100863.44
2024-02-29T10:27:06.116Z,100865.09
2024-02-29T10:29:33.277Z,100852.06
2024-02-29T10:32:00.450Z,100859.09
2024-02-29T10:34:27.747Z,100862.63
2024-02-29T10:36:55.665Z,100857.41
2024-02-29T10:39:22.980Z,100846.09
2024-02-29T10:41:51.192Z,100841.72
2024-02-29T10:44:22.732Z,100849.72
2024-02-29T10:46:53.116Z,100839.56
2024-02-29T10:49:35.938Z,100842.94
2024-02-29T10:52:14.319Z,100836.91
2024-02-29T10:55:07.020Z,100831.78
2024-02-29T10:57:43.627Z,100834.75
2024-02-29T11:00:12.909Z,100836.44
2024-02-29T11:02:40.072Z,100829.59
2024-02-29T11:05:09.137Z,100832.16
2024-02-29T11:07:36.494Z,100821.97
2024-02-29T11:10:05.666Z,100828.88
2024-02-29T11:12:32.829Z,100832.16
2024-02-29T11:15:00.314Z,100822.66
2024-02-29T11:17:32.211Z,100829.72
2024-02-29T11:20:04.570Z,100821.22
2024-02-29T11:22:34.005Z,100827.28
2024-02-29T11:25:11.494Z,100822.97
2024-02-29T11:27:47.273Z,100828.81
2024-02-29T11:30:18.655Z,100828.78
2024-02-29T11:32:45.830Z,100814.84
2024-02-29T11:35:12.986Z,100814.13
2024-02-29T11:37:40.742Z,100805.41
2024-02-29T11:40:09.029Z,100806.03
2024-02-29T11:42:37.357Z,100799.28
2024-02-29T11:45:05.277Z,100798.63
2024-02-29T11:47:32.840Z,100796.97
2024-02-29T11:50:00.836Z,100806.50
2024-02-29T11:52:28.394Z,100786.75
2024-02-29T11:54:55.704Z,100793.97
2024-02-29T11:57:25.086Z,100784.41
2024-02-29T11:59:56.519Z,100787.00
2024-02-29T12:02:24.809Z,100786.19
2024-02-29T12:04:51.958Z,100774.97
2024-02-29T12:07:20.545Z,100765.41
2024-02-29T12:09:48.795Z,100769.88
2024-02-29T12:12:16.930Z,100769.22
2024-02-29T12:14:44.779Z,100759.78
2024-02-29T12:17:12.009Z,100762.34
2024-02-29T12:19:41.214Z,100751.19
2024-02-29T12:22:13.420Z,100749.47
2024-02-29T12:24:43.227Z,100753.13
2024-02-29T12:27:10.573Z,100747.22
2024-02-29T12:29:37.827Z,100748.91
2024-02-29T12:32:05.541Z,100748.03
2024-02-29T12:34:32.946Z,100738.63
2024-02-29T12:37:00.432Z,100722.22
2024-02-29T12:39:27.711Z,100729.03
2024-02-29T12:41:55.242Z,100729.13
2024-02-29T12:44:22.931Z,100729.16
2024-02-29T12:46:54.072Z,100734.34
2024-02-29T12:49:21.316Z,100730.00
2024-02-29T12:51:48.635Z,100725.66
2024-02-29T12:54:15.712Z,100720.38
2024-02-29T12:56:42.793Z,100717.16
2024-02-29T12:59:11.437Z,100705.16
2024-02-29T13:01:38.995Z,100706.84
2024-02-29T13:04:06.412Z,100694.63
2024-02-29T13:06:33.603Z,100696.63
2024-02-29T13:09:00.870Z,100687.97
2024-02-29T13:11:28.398Z,100684.66
2024-02-29T13:13:55.587Z,100688.91
2024-02-29T13:16:22.814Z,100676.78
2024-02-29T13:18:50.252Z,100682.09
2024-02-29T13:21:17.307Z,100670.13
2024-02-29T13:23:44.837Z,100670.13
2024-02-29T13:26:12.096Z,100658.09
2024-02-29T13:28:39.699Z,100659.00
2024-02-29T13:31:07.125Z,100658.13
2024-02-29T13:33:34.403Z,100650.22
2024-02-29T13:36:01.682Z,100649.41
2024-02-29T13:38:28.789Z,100648.50
2024-02-29T13:40:55.976Z,100643.22
2024-02-29T13:43:24.221Z,100639.91
2024-02-29T13:45:51.469Z,100642.47
2024-02-29T13:48:18.646Z,100633.91
2024-02-29T13:50:45.833Z,100632.16
2024-02-29T13:53:13.016Z,100631.38
2024-02-29T13:55:40.155Z,100618.50
2024-02-29T13:58:07.728Z,100619.41
2024-02-29T14:00:34.960Z,100620.31
2024-02-29T14:03:02.575Z,100608.97
2024-02-29T14:05:29.663Z,100606.41
2024-02-29T14:07:56.920Z,100603.91
2024-02-29T14:10:24.416Z,100594.41
2024-02-29T14:12:51.640Z,100579.75
2024-02-29T14:15:23.232Z,100590.16
2024-02-29T14:17:51.770Z,100582.34
2024-02-29T14:20:19.126Z,100582.16
2024-02-29T14:22:46.359Z,100578.75
2024-02-29T14:25:13.764Z,100576.31
2024-02-29T14:27:41.104Z,100572.91
2024-02-29T14:30:10.553Z,100574.63
2024-02-29T14:32:39.114Z,100565.19
2024-02-29T14:35:07.691Z,100557.50
2024-02-29T14:37:34.932Z,100560.06
2024-02-29T14:40:03.025Z,100553.16
2024-02-29T14:42:30.294Z,100554.94
2024-02-29T14:44:57.399Z,100555.72
2024-02-29T14:47:27.046Z,100544.47
2024-02-29T14:49:55.356Z,100539.13
2024-02-29T14:52:22.739Z,100546.75
2024-02-29T14:54:49.946Z,100530.38
2024-02-29T14:57:17.283Z,100530.41
2024-02-29T14:59:44.560Z,100531.38
2024-02-29T15:02:12.508Z,100533.13
2024-02-29T15:04:39.651Z,100527.03
2024-02-29T15:07:07.021Z,100514.09
2024-02-29T15:09:34.140Z,100521.97
2024-02-29T15:12:03.696Z,100513.41
2024-02-29T15:14:30.801Z,100506.53
2024-02-29T15:16:57.958Z,100507.41
2024-02-29T15:19:25.473Z,100500.44
2024-02-29T15:21:52.989Z,100495.38
2024-02-29T15:24:21.650Z,100493.75
2024-02-29T15:26:49.232Z,100486.72
2024-02-29T15:29:16.430Z,100486.75
2024-02-29T15:31:45.460Z,100484.16
2024-02-29T15:34:12.744Z,100478.16
2024-02-29T15:36:40.135Z,100471.19
2024-02-29T15:39:07.524Z,100475.50
2024-02-29T15:41:34.844Z,100463.31
2024-02-29T15:44:01.973Z,100473.78
2024-02-29T15:46:32.317Z,100465.91
2024-02-29T15:48:59.654Z,100463.19
2024-02-29T15:51:27.644Z,100462.38
2024-02-29T15:53:55.452Z,100451.16
2024-02-29T15:56:22.566Z,100452.88
2024-02-29T15:58:49.951Z,100448.59
2024-02-29T16:01:17.396Z,100442.56
2024-02-29T16:03:44.603Z,100446.78
2024-02-29T16:06:11.741Z,100445.91
2024-02-29T16:08:38.948Z,100441.63
2024-02-29T16:11:06.493Z,100436.38
2024-02-29T16:13:36.247Z,100439.06
2024-02-29T16:16:06.458Z,100438.16
2024-02-29T16:18:33.608Z,100431.16
2024-02-29T16:21:03.043Z,100436.34
2024-02-29T16:23:30.271Z,100434.63
2024-02-29T16:25:57.587Z,100432.91
2024-02-29T16:28:28.026Z,100428.63
2024-02-29T16:30:55.920Z,100420.72
2024-02-29T16:33:23.241Z,100426.03
2024-02-29T16:35:51.027Z,100422.63
2024-02-29T16:38:18.339Z,100425.09
2024-02-29T16:40:46.083Z,100416.56
2024-02-29T16:43:15.794Z,100422.53
2024-02-29T16:45:42.937Z,100419.94
2024-02-29T16:48:10.131Z,100415.66
2024-02-29T16:50:37.453Z,100408.72
2024-02-29T16:53:06.026Z,100398.31
2024-02-29T16:55:33.296Z,100409.63
2024-02-29T16:58:00.540Z,100403.81
2024-02-29T17:00:27.773Z,100407.31
2024-02-29T17:02:55.354Z,100411.56
2024-02-29T17:05:22.461Z,100397.75
2024-02-29T17:07:50.254Z,100400.41
2024-02-29T17:10:17.530Z,100399.66
2024-02-29T17:12:44.885Z,100391.03
2024-02-29T17:15:11.973Z,100393.66
2024-02-29T17:17:39.188Z,100393.66
2024-02-29T17:20:07.064Z,100395.41
2024-02-29T17:22:34.316Z,100403.16
2024-02-29T17:25:01.980Z,100399.66
2024-02-29T17:27:29.592Z,100385.00
2024-02-29T17:29:56.738Z,100386.78
2024-02-29T17:32:26.348Z,100376.53
2024-02-29T17:34:54.014Z,100379.13
2024-02-29T17:37:23.698Z,100375.66
2024-02-29T17:39:51.829Z,100376.53
2024-02-29T17:42:18.993Z,100372.22
2024-02-29T17:44:46.068Z,100374.78
2024-02-29T17:47:13.214Z,100369.63
2024-02-29T17:49:40.354Z,100374.72
2024-02-29T17:52:07.573Z,100369.41
2024-02-29T17:54:35.948Z,100364.06
2024-02-29T17:57:03.862Z,100372.59
2024-02-29T17:59:31.004Z,100372.56
2024-02-29T18:01:58.240Z,100365.72
2024-02-29T18:04:25.733Z,100364.81
2024-02-29T18:06:52.898Z,100352.69
2024-02-29T18:09:20.081Z,100363.00
2024-02-29T18:11:47.201Z,100355.22
2024-02-29T18:14:16.583Z,100358.66
2024-02-29T18:16:43.832Z,100353.50
2024-02-29T18:19:11.323Z,100353.41
2024-02-29T18:21:44.132Z,100345.69
2024-02-29T18:24:11.778Z,100341.47
2024-02-29T18:26:39.585Z,100348.25
2024-02-29T18:29:06.899Z,100336.19
2024-02-29T18:31:34.033Z,100338.81
2024-02-29T18:34:02.109Z,100342.09
2024-02-29T18:36:29.210Z,100333.69
2024-02-29T18:38:56.302Z,100337.94
2024-02-29T18:41:25.806Z,100343.06
2024-02-29T18:44:01.653Z,100334.50
2024-02-29T18:46:43.283Z,100341.34
2024-02-29T18:49:11.341Z,100330.94
2024-02-29T18:51:45.012Z,100326.69
2024-02-29T18:54:12.144Z,100324.16
2024-02-29T18:56:40.111Z,100315.50
2024-02-29T18:59:09.913Z,100317.19
2024-02-29T19:01:37.573Z,100322.44
2024-02-29T19:04:05.109Z,100320.69
2024-02-29T19:06:32.217Z,100305.22
2024-02-29T19:08:59.353Z,100305.44
2024-02-29T19:11:26.486Z,100308.06
2024-02-29T19:13:54.065Z,100300.34
2024-02-29T19:16:21.135Z,100303.84
2024-02-29T19:18:48.589Z,100317.63
2024-02-29T19:21:15.715Z,100303.91
2024-02-29T19:23:42.893Z,100306.56
2024-02-29T19:26:10.023Z,100298.81
2024-02-29T19:28:39.005Z,100298.75
2024-02-29T19:31:07.696Z,100293.56
2024-02-29T19:33:37.147Z,100292.81
2024-02-29T19:36:04.766Z,100294.53
2024-02-29T19:38:32.297Z,100288.44
2024-02-29T19:40:59.380Z,100278.91
2024-02-29T19:43:26.596Z,100282.41
2024-02-29T19:45:53.966Z,100281.56
2024-02-29T19:48:21.046Z,100282.41
2024-02-29T19:50:48.746Z,100273.75
2024-02-29T19:53:15.865Z,100279.75
2024-02-29T19:55:43.484Z,100271.94
2024-02-29T19:58:11.386Z,100275.38
2024-02-29T20:00:38.514Z,100274.53
2024-02-29T20:03:07.474Z,100269.28
2024-02-29T20:05:35.383Z,100269.34
2024-02-29T20:08:03.596Z,100265.88
2024-02-29T20:10:31.221Z,100270.16
2024-02-29T20:12:58.384Z,100259.78
2024-02-29T20:15:25.516Z,100257.19
2024-02-29T20:17:52.796Z,100264.97
2024-02-29T20:20:22.229Z,100257.97
2024-02-29T20:22:50.022Z,100262.44
2024-02-29T20:25:17.939Z,100259.91
2024-02-29T20:27:53.004Z,100255.59
2024-02-29T20:30:21.203Z,100256.50
2024-02-29T20:32:49.896Z,100255.53
2024-02-29T20:35:18.056Z,100258.16
2024-02-29T20:37:45.263Z,100247.84
2024-02-29T20:40:12.888Z,100261.59
2024-02-29T20:42:40.284Z,100246.03
2024-02-29T20:45:07.873Z,100252.88
2024-02-29T20:47:35.176Z,100241.50
2024-02-29T20:50:03.134Z,100244.06
2024-02-29T20:52:31.156Z,100241.50
2024-02-29T20:54:58.316Z,100239.75
2024-02-29T20:57:25.493Z,100231.97
2024-02-29T20:59:56.847Z,100225.94
2024-02-29T21:02:24.857Z,100227.75
2024-02-29T21:04:51.980Z,100217.41
2024-02-29T21:07:19.247Z,100219.22
2024-02-29T21:09:49.057Z,100219.28
2024-02-29T21:12:16.185Z,100210.66
2024-02-29T21:14:43.304Z,100214.97
2024-02-29T21:17:10.396Z,100200.34
2024-02-29T21:19:37.532Z,100196.06
2024-02-29T21:22:04.913Z,100196.13
2024-02-29T21:24:32.064Z,100193.50
2024-02-29T21:26:59.238Z,100179.72
2024-02-29T21:29:26.402Z,100178.06
2024-02-29T21:31:53.995Z,100175.47
2024-02-29T21:34:21.567Z,100167.66
2024-02-29T21:36:49.381Z,100172.00
2024-02-29T21:39:19.346Z,100172.00
2024-02-29T21:41:52.072Z,100165.94
2024-02-29T21:44:19.743Z,100162.50
2024-02-29T21:46:47.030Z,100161.59
2024-02-29T21:49:14.168Z,100157.25
2024-02-29T21:51:41.282Z,100158.13
2024-02-29T21:54:08.843Z,100155.53
2024-02-29T21:56:36.391Z,100152.09
2024-02-29T21:59:03.462Z,100146.09
2024-02-29T22:01:31.566Z,100146.09
2024-02-29T22:03:58.766Z,100138.31
2024-02-29T22:06:25.913Z,100142.56
2024-02-29T22:08:53.009Z,100144.31
2024-02-29T22:11:20.273Z,100133.06
2024-02-29T22:13:48.251Z,100125.31
2024-02-29T22:16:15.396Z,100125.25
2024-02-29T22:18:42.558Z,100123.50
2024-02-29T22:21:09.673Z,100115.78
2024-02-29T22:23:36.774Z,100113.06
2024-02-29T22:26:03.971Z,100109.56
2024-02-29T22:28:31.209Z,100100.13
2024-02-29T22:30:58.464Z,100118.22
2024-02-29T22:33:25.675Z,100113.03
2024-02-29T22:35:52.920Z,100105.28
2024-02-29T22:38:20.092Z,100102.66
2024-02-29T22:40:47.298Z,100092.31
2024-02-29T22:43:14.544Z,100093.16
2024-02-29T22:45:41.680Z,100092.31
2024-02-29T22:48:08.795Z,100097.44
2024-02-29T22:50:36.055Z,100093.16
2024-02-29T22:53:03.240Z,100093.19
2024-02-29T22:55:30.407Z,100094.06
2024-02-29T22:57:57.555Z,100088.84
2024-02-29T23:00:31.499Z,100090.47
2024-02-29T23:02:58.876Z,100096.59
2024-02-29T23:05:26.143Z,100093.13
2024-02-29T23:07:53.522Z,100087.88
2024-02-29T23:10:21.616Z,100081.88
2024-02-29T23:12:50.071Z,100087.72
2024-02-29T23:15:20.860Z,100090.22
2024-02-29T23:17:55.732Z,100078.97
2024-02-29T23:20:23.816Z,100080.69
2024-02-29T23:22:53.104Z,100096.91
2024-02-29T23:25:23.202Z,100080.50
2024-02-29T23:27:51.495Z,100075.47
2024-02-29T23:30:20.461Z,100060.91
2024-02-29T23:32:48.234Z,100059.94
2024-02-29T23:35:16.247Z,100056.44
2024-02-29T23:37:43.543Z,100062.53
2024-02-29T23:40:11.021Z,100050.53
2024-02-29T23:42:38.197Z,100057.53
2024-02-29T23:45:05.720Z,100054.94
2024-02-29T23:47:33.119Z,100054.13
2024-02-29T23:50:00.754Z,100043.75
2024-02-29T23:52:27.932Z,100048.91
2024-02-29T23:54:55.523Z,100041.16
2024-02-29T23:57:22.680Z,100037.75
2024-02-29T23:59:49.757Z,100042.97
